Time;durP1;ratioP1;P1;durP2;ratioP2;P2;SDS_P1;SDS_P2;PMS_P1;PMS_P2;Temp;Humidity;BMP_temperature;BMP_pressure;BME280_temperature;BME280_humidity;BME280_pressure;Samples;Min_cycle;Max_cycle;Signal;HPM_P1;HPM_P2
2022/09/04 00:00:10;;;;;;;852.38;792.15;;;;;;;20.14;39.34;101433.38;685898;28;136019;-65
2022/09/04 00:00:41;;;;;;;854.03;793.65;;;;;;;20.14;39.43;101430.66;686003;28;138864;-64
2022/09/04 00:01:11;;;;;;;831.08;771.45;;;;;;;20.14;39.41;101430.66;685377;28;138881;-65
2022/09/04 00:01:38;;;;;;;837.13;777.28;;;;;;;20.14;39.56;101430.66;685618;28;136270;-65
2022/09/04 00:02:08;;;;;;;847.20;787.08;;;;;;;20.13;39.48;101431.69;686515;28;161098;-65
2022/09/04 00:02:48;;;;;;;830.03;770.38;;;;;;;20.12;39.61;101431.91;691170;28;137835;-64
2022/09/04 00:03:27;;;;;;;829.15;769.53;;;;;;;20.09;39.59;101429.63;691194;28;137547;-65
2022/09/04 00:03:54;;;;;;;817.30;758.08;;;;;;;20.08;39.51;101431.53;691439;28;135949;-65
2022/09/04 00:04:23;;;;;;;829.78;770.10;;;;;;;20.07;39.52;101435.34;691483;28;137533;-64
2022/09/04 00:04:50;;;;;;;835.55;775.75;;;;;;;20.05;39.69;101434.72;691414;28;136220;-65
2022/09/04 00:05:15;;;;;;;831.10;771.28;;;;;;;20.05;39.74;101433.91;685758;28;137155;-65
2022/09/04 00:05:41;;;;;;;839.17;779.10;;;;;;;20.04;39.74;101429.47;687396;28;92672;-64
2022/09/04 00:06:06;;;;;;;833.47;773.47;;;;;;;20.03;39.66;101427.78;685727;28;138114;-65
2022/09/04 00:06:34;;;;;;;845.85;785.70;;;;;;;20.04;39.56;101432.22;686332;28;138144;-65
2022/09/04 00:07:05;;;;;;;849.40;789.00;;;;;;;20.02;39.85;101428.84;687310;28;137818;-64
2022/09/04 00:07:28;;;;;;;833.60;773.65;;;;;;;20.01;39.85;101436.22;688228;28;137429;-65
2022/09/04 00:07:56;;;;;;;828.28;768.50;;;;;;;20.02;39.74;101435.16;690998;28;69341;-65
2022/09/04 00:08:35;;;;;;;841.58;781.58;;;;;;;20.04;39.76;101434.94;688585;28;137928;-65
2022/09/04 00:09:02;;;;;;;839.28;779.28;;;;;;;20.02;39.59;101428.84;687758;28;160609;-65
2022/09/04 00:09:28;;;;;;;838.50;778.55;;;;;;;19.98;39.71;101433.94;688519;28;136324;-65
2022/09/04 00:09:58;;;;;;;848.08;787.80;;;;;;;19.96;39.72;101431.41;688518;28;138073;-64
2022/09/04 00:10:28;;;;;;;822.38;762.80;;;;;;;19.94;39.69;101427.22;691092;28;59168;-65
2022/09/04 00:10:53;;;;;;;828.22;768.60;;;;;;;19.91;40.11;101444.94;688388;28;137572;-65
2022/09/04 00:11:27;;;;;;;844.25;784.05;;;;;;;19.86;40.15;101428.34;689263;28;113650;-65
2022/09/04 00:11:54;;;;;;;848.42;788.17;;;;;;;19.90;40.13;101448.75;685132;28;137584;-65
2022/09/04 00:12:22;;;;;;;870.65;809.75;;;;;;;19.89;40.24;101429.78;685878;28;137687;-65
2022/09/04 00:12:47;;;;;;;842.80;782.80;;;;;;;19.88;40.24;101441.81;685479;28;136018;-65
2022/09/04 00:13:11;;;;;;;826.28;766.72;;;;;;;19.90;40.09;101440.53;685753;28;137847;-65
2022/09/04 00:13:37;;;;;;;835.20;775.42;;;;;;;19.91;40.02;101427.66;687186;28;93275;-65
2022/09/04 00:14:00;;;;;;;834.05;774.30;;;;;;;19.89;40.13;101444.34;686483;28;113558;-65
2022/09/04 00:14:29;;;;;;;819.65;760.33;;;;;;;19.88;40.08;101439.91;689965;28;13613;-65
2022/09/04 00:14:56;;;;;;;824.17;764.85;;;;;;;19.86;40.20;101443.94;685805;28;136354;-65
2022/09/04 00:15:20;;;;;;;833.47;773.70;;;;;;;19.86;40.19;101438.44;685944;28;136289;-64
2022/09/04 00:15:45;;;;;;;844.22;784.17;;;;;;;19.84;40.15;101441.41;688083;28;69455;-65
2022/09/04 00:16:09;;;;;;;842.03;782.03;;;;;;;19.85;40.24;101439.53;686542;28;114965;-65
2022/09/04 00:16:41;;;;;;;848.10;787.92;;;;;;;19.86;40.42;101443.94;687353;28;92111;-65
2022/09/04 00:17:06;;;;;;;843.60;783.50;;;;;;;19.85;40.22;101436.78;686868;28;137462;-65
2022/09/04 00:17:29;;;;;;;839.00;779.15;;;;;;;19.84;40.47;101438.66;689872;28;92292;-65
2022/09/04 00:17:55;;;;;;;825.65;766.15;;;;;;;19.85;40.39;101436.78;690465;28;92325;-65
2022/09/04 00:18:21;;;;;;;843.25;783.05;;;;;;;19.85;40.19;101439.53;692676;28;92717;-65
2022/09/04 00:18:48;;;;;;;864.03;803.15;;;;;;;19.83;40.17;101444.38;691206;28;137660;-65
2022/09/04 00:19:15;;;;;;;853.13;792.75;;;;;;;19.82;40.48;101434.50;691617;28;136374;-65
2022/09/04 00:19:42;;;;;;;837.92;777.92;;;;;;;19.83;40.22;101441.63;691366;28;137896;-64
2022/09/04 00:20:07;;;;;;;839.88;779.78;;;;;;;19.83;40.22;101438.88;691399;28;136459;-65
2022/09/04 00:20:34;;;;;;;846.45;786.30;;;;;;;19.84;40.08;101440.56;691890;28;138130;-65
2022/09/04 00:21:01;;;;;;;865.88;805.15;;;;;;;19.84;40.16;101441.41;692331;28;137686;-65
2022/09/04 00:21:32;;;;;;;869.78;808.97;;;;;;;19.82;40.00;101440.78;693195;28;60464;-65
2022/09/04 00:21:57;;;;;;;884.90;823.58;;;;;;;19.82;40.07;101439.97;692964;28;81845;-65
2022/09/04 00:22:26;;;;;;;882.00;820.65;;;;;;;19.82;40.06;101437.22;691778;28;138224;-65
2022/09/04 00:22:52;;;;;;;838.63;778.60;;;;;;;19.80;40.17;101434.72;691853;28;137497;-65
2022/09/04 00:23:18;;;;;;;832.90;773.00;;;;;;;19.81;40.34;101436.38;691772;28;138041;-65
2022/09/04 00:23:43;;;;;;;821.20;761.80;;;;;;;19.82;40.32;101434.50;691810;28;138332;-65
2022/09/04 00:24:08;;;;;;;816.50;757.10;;;;;;;19.77;40.33;101433.25;692371;28;114421;-65
2022/09/04 00:24:31;;;;;;;821.28;761.78;;;;;;;19.80;40.42;101441.00;695070;28;96882;-65
2022/09/04 00:25:00;;;;;;;827.17;767.63;;;;;;;19.80;40.50;101435.53;699542;28;69501;-65
2022/09/04 00:25:25;;;;;;;844.85;784.70;;;;;;;19.80;40.31;101438.28;694560;28;137799;-65
2022/09/04 00:25:52;;;;;;;843.60;783.55;;;;;;;19.80;40.47;101437.44;693597;28;90812;-65
2022/09/04 00:26:21;;;;;;;832.13;772.33;;;;;;;19.82;40.42;101431.75;687963;28;161644;-65
2022/09/04 00:26:49;;;;;;;844.67;784.63;;;;;;;19.83;40.30;101441.63;689190;28;131799;-64
2022/09/04 00:27:14;;;;;;;838.60;778.27;;;;;;;19.83;40.31;101436.16;684519;28;166577;-64
2022/09/04 00:27:43;;;;;;;831.45;771.65;;;;;;;19.85;40.44;101439.53;686396;28;139081;-65
2022/09/04 00:28:08;;;;;;;842.15;782.15;;;;;;;19.81;40.29;101433.63;683156;28;138809;-65
2022/09/04 00:28:35;;;;;;;844.70;784.60;;;;;;;19.80;40.26;101438.28;684239;28;115195;-65
2022/09/04 00:29:02;;;;;;;844.13;784.03;;;;;;;19.74;40.06;101439.13;680611;28;130723;-65
2022/09/04 00:29:33;;;;;;;837.70;777.72;;;;;;;19.73;40.29;101436.59;681769;28;137982;-65
2022/09/04 00:30:01;;;;;;;842.40;782.40;;;;;;;19.72;40.27;101434.94;683407;28;135876;-64
2022/09/04 00:30:23;;;;;;;846.20;785.92;;;;;;;19.70;40.46;101437.06;683426;28;138855;-65
2022/09/04 00:30:50;;;;;;;842.60;782.65;;;;;;;19.69;40.37;101435.38;687750;28;44380;-65
2022/09/04 00:31:24;;;;;;;835.05;775.25;;;;;;;19.69;40.53;101435.38;691557;28;138881;-65
2022/09/04 00:31:49;;;;;;;834.53;774.88;;;;;;;19.68;40.34;101439.19;690863;28;136368;-65
2022/09/04 00:32:18;;;;;;;832.15;772.45;;;;;;;19.61;40.39;101429.09;688765;28;114744;-65
2022/09/04 00:32:44;;;;;;;840.63;780.60;;;;;;;19.65;40.37;101436.88;686091;28;138867;-65
2022/09/04 00:33:10;;;;;;;838.05;778.28;;;;;;;19.63;40.35;101428.88;686062;28;137843;-65
2022/09/04 00:33:37;;;;;;;828.22;768.72;;;;;;;19.63;40.44;101431.63;685413;28;159591;-65
2022/09/04 00:34:06;;;;;;;847.65;787.50;;;;;;;19.62;40.25;101432.66;686305;28;136360;-65
2022/09/04 00:34:39;;;;;;;890.00;828.58;;;;;;;19.61;40.36;101433.75;686274;28;137956;-65
2022/09/04 00:35:06;;;;;;;875.38;814.40;;;;;;;19.60;40.23;101437.53;686259;28;137496;-65
2022/09/04 00:35:31;;;;;;;830.65;770.92;;;;;;;19.60;40.24;101429.31;686332;28;138236;-65
2022/09/04 00:35:55;;;;;;;831.40;771.75;;;;;;;19.59;40.30;101439.44;687161;28;113605;-65
2022/09/04 00:36:18;;;;;;;829.30;769.65;;;;;;;19.61;40.15;101431.00;688009;28;92295;-65
2022/09/04 00:36:42;;;;;;;830.45;770.70;;;;;;;19.59;40.29;101435.84;688645;28;69447;-65
2022/09/04 00:37:07;;;;;;;836.47;776.33;;;;;;;19.58;40.21;101436.94;686004;28;92376;-65
2022/09/04 00:37:31;;;;;;;860.30;799.70;;;;;;;19.58;40.37;101432.28;686984;28;115701;-65
2022/09/04 00:37:57;;;;;;;872.50;811.58;;;;;;;19.56;40.40;101434.41;687859;28;92022;-65
2022/09/04 00:38:31;;;;;;;870.67;809.75;;;;;;;19.51;40.38;101422.41;687923;28;160738;-65
2022/09/04 00:38:56;;;;;;;873.08;811.97;;;;;;;19.58;40.29;101431.44;689363;28;135756;-65
2022/09/04 00:39:19;;;;;;;869.97;809.08;;;;;;;19.58;40.42;101434.19;692281;28;115149;-65
2022/09/04 00:39:49;;;;;;;860.55;799.97;;;;;;;19.61;40.48;101441.97;694013;28;69696;-65
2022/09/04 00:40:20;;;;;;;843.22;783.17;;;;;;;19.62;40.39;101435.41;690462;28;136086;-65
2022/09/04 00:40:43;;;;;;;838.28;778.35;;;;;;;19.63;40.17;101442.59;686302;28;137756;-65
2022/09/04 00:41:10;;;;;;;845.78;785.53;;;;;;;19.60;40.05;101446.59;688663;28;70317;-65
2022/09/04 00:41:37;;;;;;;843.20;783.03;;;;;;;19.61;40.37;101441.97;686417;28;136387;-64
2022/09/04 00:42:07;;;;;;;842.72;782.53;;;;;;;19.61;40.23;101433.75;685558;28;138171;-65
2022/09/04 00:43:09;;;;;;;840.63;780.63;;;;;;;19.62;40.22;101435.41;686448;28;138018;-65
2022/09/04 00:44:03;;;;;;;849.33;789.03;;;;;;;19.59;40.02;101444.94;677976;29;135391;-65
2022/09/04 00:44:43;;;;;;;837.85;778.00;;;;;;;19.58;40.06;101445.97;674543;28;158794;-65
2022/09/04 00:45:31;;;;;;;845.67;785.45;;;;;;;19.59;40.30;101444.06;686192;28;137713;-65
2022/09/04 00:47:22;;;;;;;887.67;825.97;;;;;;;19.62;40.29;101443.63;687186;28;138597;-64
2022/09/04 00:48:03;;;;;;;854.40;793.92;;;;;;;19.61;40.04;101445.53;687917;28;137219;-65
2022/09/04 00:49:14;;;;;;;851.80;791.35;;;;;;;19.61;39.93;101444.72;686413;28;138562;-65
2022/09/04 00:50:00;;;;;;;828.45;768.80;;;;;;;19.57;39.97;101449.78;677997;29;138703;-64
2022/09/04 00:50:31;;;;;;;829.55;769.85;;;;;;;19.56;40.13;101447.25;688056;28;137405;-64
2022/09/04 00:51:14;;;;;;;825.75;766.30;;;;;;;19.54;40.29;101443.91;688979;28;138035;-64
2022/09/04 00:51:44;;;;;;;853.75;793.50;;;;;;;19.50;40.22;101442.63;689021;28;138618;-63
2022/09/04 00:52:15;;;;;;;843.45;783.53;;;;;;;19.49;40.46;101443.72;686665;28;180480;-62
2022/09/04 00:53:01;;;;;;;842.45;782.60;;;;;;;19.50;40.40;101445.38;688960;28;137678;-65
2022/09/04 00:53:36;;;;;;;841.47;781.42;;;;;;;19.48;40.54;101450.25;688890;28;137417;-63
2022/09/04 00:54:11;;;;;;;898.75;837.05;;;;;;;19.49;40.46;101450.03;688927;28;137216;-64
2022/09/04 00:54:40;;;;;;;844.03;783.97;;;;;;;19.48;40.25;101448.34;691733;28;137534;-64
2022/09/04 00:55:15;;;;;;;846.00;785.90;;;;;;;19.48;40.25;101453.00;691531;28;136226;-63
2022/09/04 00:55:45;;;;;;;838.80;778.80;;;;;;;19.48;40.42;101455.72;691529;28;137539;-63
2022/09/04 00:56:24;;;;;;;860.85;800.30;;;;;;;19.48;40.41;101462.03;688035;28;159172;-64
2022/09/04 00:57:12;;;;;;;880.38;819.17;;;;;;;19.43;40.53;101454.47;685668;28;137551;-65
2022/09/04 00:57:50;;;;;;;840.15;780.03;;;;;;;19.43;40.48;101456.38;686299;28;137828;-64
2022/09/04 00:58:33;;;;;;;840.60;780.58;;;;;;;19.41;40.34;101459.34;686234;28;137449;-64
2022/09/04 00:59:02;;;;;;;827.15;767.63;;;;;;;19.40;40.54;101457.69;686216;28;135964;-64
2022/09/04 00:59:38;;;;;;;846.08;786.03;;;;;;;19.39;40.45;101457.91;686272;28;138626;-64
2022/09/04 01:00:07;;;;;;;845.22;785.28;;;;;;;19.34;40.53;101460.44;686288;28;137529;-65
2022/09/04 01:00:31;;;;;;;854.25;794.05;;;;;;;19.33;40.59;101459.59;688875;28;137901;-64
2022/09/04 01:00:53;;;;;;;850.00;789.88;;;;;;;19.31;40.49;101456.25;691028;28;67496;-63
2022/09/04 01:01:20;;;;;;;873.75;813.05;;;;;;;19.31;40.67;101459.00;691990;28;45216;-64
2022/09/04 01:01:43;;;;;;;870.70;809.97;;;;;;;19.30;40.66;101459.19;688664;28;136263;-64
2022/09/04 01:02:08;;;;;;;835.47;775.78;;;;;;;19.29;40.70;101463.81;690581;28;89257;-63
2022/09/04 01:02:38;;;;;;;834.75;775.08;;;;;;;19.29;40.79;101458.34;692474;28;113568;-64
2022/09/04 01:03:18;;;;;;;834.30;774.60;;;;;;;19.30;40.89;101462.78;691767;28;137485;-64
2022/09/04 01:03:58;;;;;;;848.78;788.65;;;;;;;19.27;40.78;101463.22;686188;28;137445;-64
2022/09/04 01:04:28;;;;;;;850.08;789.88;;;;;;;19.26;40.85;101459.63;686212;28;137526;-64
2022/09/04 01:04:57;;;;;;;846.15;786.15;;;;;;;19.27;40.64;101468.69;686739;28;136144;-64
2022/09/04 01:05:31;;;;;;;834.80;775.03;;;;;;;19.25;40.88;101465.34;688894;28;137898;-64
2022/09/04 01:06:04;;;;;;;836.67;777.00;;;;;;;19.27;40.73;101471.41;688951;28;136002;-64
2022/09/04 01:06:31;;;;;;;844.13;784.10;;;;;;;19.27;40.79;101463.22;688997;28;137963;-64
2022/09/04 01:07:03;;;;;;;877.83;816.92;;;;;;;19.29;40.94;101460.25;688288;28;137714;-64
2022/09/04 01:07:39;;;;;;;838.97;779.08;;;;;;;19.29;40.90;101468.47;688869;28;137354;-64
2022/09/04 01:08:09;;;;;;;829.72;770.30;;;;;;;19.30;40.66;101465.50;688836;28;137637;-64
2022/09/04 01:08:40;;;;;;;852.00;791.95;;;;;;;19.30;40.97;101460.03;688918;28;136161;-64
2022/09/04 01:09:36;;;;;;;845.92;785.92;;;;;;;19.31;40.88;101460.88;688755;28;137459;-64
2022/09/04 01:10:07;;;;;;;845.15;785.15;;;;;;;19.32;40.83;101463.38;679513;28;160166;-65
2022/09/04 01:10:35;;;;;;;815.53;756.25;;;;;;;19.33;41.07;101459.59;688102;28;160687;-64
2022/09/04 01:11:07;;;;;;;836.58;776.78;;;;;;;19.33;40.77;101462.34;688745;28;137779;-64
2022/09/04 01:11:37;;;;;;;842.08;782.17;;;;;;;19.33;40.75;101462.34;689041;28;137738;-64
2022/09/04 01:12:06;;;;;;;851.53;791.28;;;;;;;19.30;40.82;101462.78;688108;28;136165;-64
2022/09/04 01:12:35;;;;;;;834.63;774.90;;;;;;;19.31;40.85;101459.00;688943;28;137981;-64
2022/09/04 01:13:01;;;;;;;837.75;777.95;;;;;;;19.29;41.02;101468.47;688748;28;137900;-64
2022/09/04 01:13:32;;;;;;;841.30;781.40;;;;;;;19.31;40.81;101459.00;688838;28;136394;-64
2022/09/04 01:14:02;;;;;;;832.75;773.05;;;;;;;19.30;40.71;101465.50;686722;28;137565;-64
2022/09/04 01:14:28;;;;;;;853.92;793.67;;;;;;;19.27;40.81;101464.03;689045;28;138157;-64
2022/09/04 01:14:54;;;;;;;863.28;802.65;;;;;;;19.26;40.85;101467.84;688723;28;137961;-63
2022/09/04 01:15:20;;;;;;;818.40;759.20;;;;;;;19.23;41.00;101465.56;689024;28;136714;-63
2022/09/04 01:15:45;;;;;;;820.53;761.22;;;;;;;19.19;40.97;101464.28;691304;28;138275;-64
2022/09/04 01:16:12;;;;;;;822.95;763.60;;;;;;;19.24;40.90;101466.38;692173;28;113633;-64
2022/09/04 01:16:36;;;;;;;828.25;768.63;;;;;;;19.19;40.96;101456.06;685939;28;138083;-64
2022/09/04 01:17:08;;;;;;;831.97;772.00;;;;;;;19.20;41.17;101468.72;688272;28;92113;-64
2022/09/04 01:17:35;;;;;;;843.67;783.55;;;;;;;19.20;41.04;101462.38;689940;28;137937;-64
2022/09/04 01:18:04;;;;;;;846.30;786.25;;;;;;;19.21;40.90;101469.56;694137;28;137559;-64
2022/09/04 01:18:29;;;;;;;843.60;783.55;;;;;;;19.18;41.06;101462.59;692857;28;137910;-64
2022/09/04 01:18:55;;;;;;;843.47;783.50;;;;;;;19.21;41.19;101469.56;692540;28;115172;-65
2022/09/04 01:19:30;;;;;;;832.83;773.15;;;;;;;19.19;40.88;101463.47;691669;28;136429;-65
2022/09/04 01:19:55;;;;;;;892.63;831.13;;;;;;;19.20;40.69;101470.59;691735;28;137435;-65
2022/09/04 01:20:21;;;;;;;838.47;778.65;;;;;;;19.16;41.38;101474.84;692435;28;115886;-64
2022/09/04 01:21:05;;;;;;;873.47;812.75;;;;;;;19.16;41.02;101472.09;691789;28;136404;-65
2022/09/04 01:21:47;;;;;;;821.22;761.83;;;;;;;19.15;41.25;101475.88;690363;28;137393;-64
2022/09/04 01:22:20;;;;;;;816.72;757.50;;;;;;;19.15;41.17;101476.72;686003;28;157208;-64
2022/09/04 01:22:55;;;;;;;841.08;781.25;;;;;;;19.09;41.38;101472.97;688489;28;137194;-65
2022/09/04 01:23:25;;;;;;;821.58;762.38;;;;;;;19.12;41.15;101477.16;688693;28;135764;-64
2022/09/04 01:24:05;;;;;;;842.65;782.88;;;;;;;19.09;41.37;101469.41;688895;28;136124;-64
2022/09/04 01:24:46;;;;;;;879.20;818.22;;;;;;;19.09;41.27;101472.97;688747;28;137784;-65
2022/09/04 01:25:19;;;;;;;822.78;763.25;;;;;;;19.12;41.19;101479.06;688954;28;135983;-64
2022/09/04 01:25:54;;;;;;;843.30;783.33;;;;;;;19.12;41.26;101476.31;688318;28;160601;-64
2022/09/04 01:26:21;;;;;;;822.38;762.92;;;;;;;19.12;41.58;101479.06;686291;28;137040;-65
2022/09/04 01:26:46;;;;;;;807.95;748.92;;;;;;;19.11;41.41;101478.22;685416;28;161253;-64
2022/09/04 01:27:08;;;;;;;854.30;793.77;;;;;;;19.13;41.24;101472.53;687004;28;157897;-65
2022/09/04 01:27:35;;;;;;;889.63;828.15;;;;;;;19.13;41.42;101475.28;692344;28;67370;-64
2022/09/04 01:28:03;;;;;;;836.92;777.08;;;;;;;19.13;41.58;101476.09;691594;28;136480;-63
2022/09/04 01:28:27;;;;;;;828.53;768.95;;;;;;;19.14;41.22;101474.19;690794;28;160977;-64
2022/09/04 01:28:58;;;;;;;830.05;770.42;;;;;;;19.16;41.34;101474.84;692400;28;115111;-64
2022/09/04 01:29:27;;;;;;;829.45;769.83;;;;;;;19.16;41.41;101474.84;691617;28;137674;-64
2022/09/04 01:29:56;;;;;;;847.15;787.08;;;;;;;19.15;41.09;101473.16;691043;28;137606;-64
2022/09/04 01:30:19;;;;;;;839.67;779.88;;;;;;;19.09;41.21;101466.66;691293;28;137693;-64
2022/09/04 01:30:44;;;;;;;837.00;776.78;;;;;;;19.16;41.30;101472.94;693343;28;46446;-64
2022/09/04 01:31:15;;;;;;;863.33;802.70;;;;;;;19.14;41.25;101480.53;691572;28;138301;-64
2022/09/04 01:31:44;;;;;;;854.88;794.60;;;;;;;19.17;41.19;101474.63;691619;28;137718;-64
2022/09/04 01:32:10;;;;;;;857.58;797.15;;;;;;;19.16;41.28;101472.09;687538;28;180536;-64
2022/09/04 01:32:42;;;;;;;801.67;742.85;;;;;;;19.15;41.31;101473.97;691682;28;136207;-64
2022/09/04 01:33:13;;;;;;;854.60;793.55;;;;;;;19.17;41.28;101480.09;689807;28;137657;-64
2022/09/04 01:33:39;;;;;;;878.67;817.60;;;;;;;19.13;41.43;101475.28;691642;28;136038;-64
2022/09/04 01:34:24;;;;;;;867.70;807.15;;;;;;;19.11;41.33;101477.38;693001;28;98057;-64
2022/09/04 01:34:52;;;;;;;873.65;812.95;;;;;;;19.09;41.33;101474.88;689075;28;136995;-64
2022/09/04 01:35:21;;;;;;;828.47;768.85;;;;;;;19.06;41.25;101475.31;689003;28;137818;-64
2022/09/04 01:35:48;;;;;;;839.92;780.08;;;;;;;19.04;41.49;101471.91;689012;28;138042;-64
2022/09/04 01:36:15;;;;;;;833.33;773.65;;;;;;;19.05;41.35;101476.34;688981;28;138733;-64
2022/09/04 01:36:43;;;;;;;831.22;771.58;;;;;;;19.06;41.48;101475.31;688930;28;138961;-64
2022/09/04 01:37:13;;;;;;;835.92;775.90;;;;;;;19.06;41.47;101478.03;685929;28;179583;-64
2022/09/04 01:37:42;;;;;;;840.88;780.97;;;;;;;19.06;41.45;101478.03;687898;28;137807;-64
2022/09/04 01:38:10;;;;;;;858.28;797.95;;;;;;;19.06;41.35;101481.63;686145;28;136199;-64
2022/09/04 01:38:37;;;;;;;853.67;793.45;;;;;;;19.07;41.20;101474.22;686143;28;137816;-64
2022/09/04 01:39:00;;;;;;;892.88;831.63;;;;;;;19.06;41.45;101472.56;689047;28;137856;-64
2022/09/04 01:39:23;;;;;;;897.22;835.83;;;;;;;19.06;41.42;101478.03;691675;28;46366;-64
2022/09/04 01:39:51;;;;;;;832.25;772.80;;;;;;;19.03;41.62;101475.75;690475;28;92097;-64
2022/09/04 01:40:25;;;;;;;804.15;745.38;;;;;;;18.98;41.25;101479.13;688863;28;137530;-63
2022/09/04 01:40:52;;;;;;;823.85;764.47;;;;;;;18.99;41.64;101474.47;688475;28;137554;-64
2022/09/04 01:41:17;;;;;;;827.50;767.90;;;;;;;18.96;41.57;101474.91;690759;28;160968;-63
2022/09/04 01:41:42;;;;;;;827.58;768.00;;;;;;;18.92;41.57;101477.25;691774;28;136447;-64
2022/09/04 01:42:10;;;;;;;835.92;776.22;;;;;;;18.88;41.76;101479.53;670044;28;133997;-64
2022/09/04 01:42:38;;;;;;;886.47;825.20;;;;;;;18.88;41.88;101482.28;696068;28;136302;-63
2022/09/04 01:43:01;;;;;;;878.60;817.53;;;;;;;18.87;41.98;101475.16;696129;28;161009;-63
2022/09/04 01:43:24;;;;;;;832.88;773.28;;;;;;;18.82;41.69;101474.88;698462;28;92063;-64
2022/09/04 01:43:45;;;;;;;841.17;781.25;;;;;;;18.81;41.85;101475.09;699377;28;69453;-64
2022/09/04 01:44:08;;;;;;;873.30;812.40;;;;;;;18.81;42.19;101478.69;698534;28;21551;-63
2022/09/04 01:44:30;;;;;;;885.00;823.80;;;;;;;18.82;41.88;101476.78;699150;28;1014;-64
2022/09/04 01:44:51;;;;;;;848.58;788.45;;;;;;;18.81;42.26;101478.69;698336;28;23502;-63
2022/09/04 01:45:13;;;;;;;840.53;780.60;;;;;;;18.82;42.05;101479.53;697641;28;46658;-63
2022/09/04 01:45:46;;;;;;;856.05;795.65;;;;;;;18.80;42.03;101474.28;697240;28;46410;-64
2022/09/04 01:46:37;;;;;;;843.67;783.75;;;;;;;18.80;42.17;101478.91;687958;28;160645;-63
2022/09/04 01:47:07;;;;;;;867.60;806.67;;;;;;;18.81;42.08;101477.84;681927;28;137479;-63
2022/09/04 01:47:34;;;;;;;836.17;776.33;;;;;;;18.83;42.13;101481.22;686707;28;137791;-65
2022/09/04 01:47:59;;;;;;;826.97;767.42;;;;;;;18.82;42.16;101476.78;688036;28;161966;-63
2022/09/04 01:48:26;;;;;;;815.92;756.65;;;;;;;18.82;42.14;101479.53;688869;28;137592;-64
2022/09/04 01:48:53;;;;;;;828.08;768.47;;;;;;;18.81;42.11;101475.09;688832;28;138176;-63
2022/09/04 01:49:23;;;;;;;853.42;793.10;;;;;;;18.80;42.06;101476.19;688926;28;138403;-65
2022/09/04 01:49:47;;;;;;;860.78;800.28;;;;;;;18.79;41.84;101480.78;688955;28;137685;-65
2022/09/04 01:50:12;;;;;;;858.28;797.88;;;;;;;18.78;41.97;101478.28;693476;28;67475;-64
2022/09/04 01:50:34;;;;;;;848.83;788.67;;;;;;;18.78;42.13;101475.53;691557;28;137933;-65
2022/09/04 01:50:57;;;;;;;833.35;773.55;;;;;;;18.74;41.86;101469.66;692671;28;45269;-64
2022/09/04 01:51:24;;;;;;;838.85;778.97;;;;;;;18.73;42.22;101470.72;693685;28;70459;-64
2022/09/04 01:51:54;;;;;;;841.03;781.00;;;;;;;18.70;42.38;101472.00;690460;28;136346;-65
2022/09/04 01:52:29;;;;;;;861.67;801.20;;;;;;;18.69;42.23;101475.75;688913;28;137531;-64
2022/09/04 01:52:57;;;;;;;836.97;777.25;;;;;;;18.71;42.07;101476.41;688822;28;137392;-65
2022/09/04 01:53:24;;;;;;;844.92;784.90;;;;;;;18.72;42.04;101469.03;688559;28;137906;-65
2022/09/04 01:53:51;;;;;;;850.42;790.40;;;;;;;18.72;42.32;101478.06;689287;28;122170;-65
2022/09/04 01:54:22;;;;;;;860.97;800.47;;;;;;;18.73;41.97;101474.28;688799;28;136375;-65
2022/09/04 01:54:52;;;;;;;864.97;804.60;;;;;;;18.73;42.16;101468.00;688180;28;159134;-65
2022/09/04 01:55:19;;;;;;;846.22;786.25;;;;;;;18.73;42.17;101466.09;691164;28;137879;-65
2022/09/04 01:55:49;;;;;;;821.95;762.60;;;;;;;18.72;42.20;101464.41;690565;28;159388;-64
2022/09/04 01:56:15;;;;;;;839.40;779.65;;;;;;;18.73;42.11;101465.25;690907;28;136319;-65
2022/09/04 01:56:41;;;;;;;874.40;813.50;;;;;;;18.73;41.99;101468.81;688330;28;138145;-65
2022/09/04 01:57:10;;;;;;;837.75;777.60;;;;;;;18.74;42.05;101472.38;686802;28;138106;-65
2022/09/04 01:57:40;;;;;;;827.95;768.35;;;;;;;18.75;41.94;101473.25;688737;28;138083;-65
2022/09/04 01:58:15;;;;;;;827.95;768.35;;;;;;;18.72;42.42;101469.88;686098;28;138558;-65
2022/09/04 01:58:41;;;;;;;833.38;773.47;;;;;;;18.75;42.27;101473.25;688805;28;137854;-65
2022/09/04 01:59:10;;;;;;;858.67;798.20;;;;;;;18.79;42.08;101474.50;686028;28;138905;-66
2022/09/04 01:59:37;;;;;;;824.47;764.90;;;;;;;18.77;42.19;101477.44;686174;28;135975;-65
2022/09/04 02:00:08;;;;;;;843.22;783.10;;;;;;;18.73;41.98;101479.78;685847;28;138049;-65
2022/09/04 02:00:33;;;;;;;852.08;791.78;;;;;;;18.73;42.35;101476.19;686167;28;137860;-65
2022/09/04 02:01:09;;;;;;;821.45;762.10;;;;;;;18.72;42.14;101474.50;686950;28;115289;-65
2022/09/04 02:01:37;;;;;;;817.03;757.80;;;;;;;18.72;42.15;101471.78;688473;28;137340;-65
2022/09/04 02:02:05;;;;;;;828.45;768.88;;;;;;;18.72;42.12;101474.50;689768;28;137754;-65
2022/09/04 02:02:33;;;;;;;858.08;797.70;;;;;;;18.70;42.19;101471.16;693309;28;159218;-65
2022/09/04 02:03:00;;;;;;;820.03;760.75;;;;;;;18.71;42.25;101470.94;693930;28;137853;-65
2022/09/04 02:03:26;;;;;;;815.72;756.53;;;;;;;18.73;42.12;101476.19;693109;28;138081;-65
2022/09/04 02:03:55;;;;;;;819.53;760.28;;;;;;;18.73;41.97;101473.47;691554;28;138769;-65
2022/09/04 02:04:27;;;;;;;833.70;773.95;;;;;;;18.73;41.99;101476.19;694285;28;60518;-65
2022/09/04 02:04:55;;;;;;;868.95;808.22;;;;;;;18.72;42.12;101475.34;691467;28;138087;-66
2022/09/04 02:05:20;;;;;;;855.33;795.08;;;;;;;18.73;42.32;101482.50;691494;28;135285;-65
2022/09/04 02:05:48;;;;;;;824.13;764.70;;;;;;;18.71;42.18;101473.69;692158;28;113825;-65
2022/09/04 02:06:15;;;;;;;829.33;769.72;;;;;;;18.68;42.39;101475.97;691201;28;137788;-65
2022/09/04 02:06:41;;;;;;;849.78;789.58;;;;;;;18.69;42.00;101481.25;691312;28;137958;-65
2022/09/04 02:07:11;;;;;;;844.35;784.10;;;;;;;18.70;42.40;101473.88;689975;28;139033;-65
2022/09/04 02:07:35;;;;;;;868.25;807.50;;;;;;;18.68;42.50;101463.16;691454;28;138219;-65
2022/09/04 02:08:05;;;;;;;828.42;768.80;;;;;;;18.71;42.49;101479.16;690460;28;90714;-66
2022/09/04 02:08:38;;;;;;;811.15;752.03;;;;;;;18.72;42.50;101474.50;688828;28;139196;-66
2022/09/04 02:09:09;;;;;;;869.78;809.03;;;;;;;18.71;42.47;101470.94;688885;28;137690;-66
2022/09/04 02:09:36;;;;;;;862.50;801.97;;;;;;;18.71;42.23;101475.56;688930;28;136029;-65
2022/09/04 02:10:06;;;;;;;849.72;789.65;;;;;;;18.70;42.22;101472.00;688841;28;136481;-66
2022/09/04 02:10:36;;;;;;;849.17;789.15;;;;;;;18.71;42.57;101473.69;688761;28;137995;-65
2022/09/04 02:11:05;;;;;;;821.83;762.58;;;;;;;18.71;42.36;101472.81;688761;28;137666;-65
2022/09/04 02:11:28;;;;;;;816.33;757.22;;;;;;;18.73;42.51;101474.28;688845;28;137864;-66
2022/09/04 02:11:57;;;;;;;826.25;766.95;;;;;;;18.74;42.25;101472.38;689781;28;69411;-66